Wetterdaten: Woche 21.09.15 - 27.09.15 (KW39)
Datum Zeit Temp. A. Feuchte A. Luftdruck Regen Wind Richtung Sonnenschein ET UV Solar Taupunkt Windchill Windben
21.09.2015 00:00 8,2 C 91 % 1021,1 hPa 0,0 l/m 0,0 km/h (0 Bft) N 0,00 h 0,000 mm 0,0 UV-I 0 W/m 6,8 C 8,2 C 0,0 km/h (0 Bft)
21.09.2015 01:00 8,2 C 92 % 1020,8 hPa 0,0 l/m 0,0 km/h (0 Bft) N 0,00 h 0,000 mm 0,0 UV-I 0 W/m 7,0 C 8,2 C 0,0 km/h (0 Bft)
21.09.2015 02:00 8,4 C 92 % 1020,5 hPa 0,0 l/m 0,0 km/h (0 Bft) N 0,00 h 0,000 mm 0,0 UV-I 0 W/m 7,2 C 8,4 C 0,1 km/h (0 Bft)
21.09.2015 03:00 8,8 C 92 % 1020,1 hPa 0,4 l/m 0,0 km/h (0 Bft) N 0,00 h 0,000 mm 0,0 UV-I 0 W/m 7,6 C 8,8 C 0,2 km/h (0 Bft)
21.09.2015 04:00 8,8 C 92 % 1019,7 hPa 0,2 l/m 0,1 km/h (0 Bft) N 0,00 h 0,000 mm 0,0 UV-I 0 W/m 7,6 C 8,8 C 0,1 km/h (0 Bft)
21.09.2015 05:00 8,4 C 93 % 1019,4 hPa 0,0 l/m 0,0 km/h (0 Bft) N 0,00 h 0,000 mm 0,0 UV-I 0 W/m 7,3 C 8,4 C 0,0 km/h (0 Bft)
21.09.2015 06:00 8,3 C 94 % 1019,4 hPa 0,0 l/m 0,0 km/h (0 Bft) N 0,00 h 0,000 mm 0,0 UV-I 0 W/m 7,3 C 8,3 C 0,0 km/h (0 Bft)
21.09.2015 07:00 8,2 C 94 % 1019,4 hPa 0,0 l/m 0,0 km/h (0 Bft) N 0,00 h 0,000 mm 0,0 UV-I 16 W/m 7,3 C 8,2 C 0,0 km/h (0 Bft)
21.09.2015 08:00 8,7 C 94 % 1019,2 hPa 0,0 l/m 0,0 km/h (0 Bft) N 0,78 h 0,000 mm 0,6 UV-I 87 W/m 7,8 C 8,7 C 0,3 km/h (0 Bft)
21.09.2015 09:00 10,1 C 92 % 1019,1 hPa 0,0 l/m 0,2 km/h (0 Bft) N 1,00 h 0,051 mm 0,8 UV-I 162 W/m 8,9 C 10,1 C 0,4 km/h (0 Bft)
21.09.2015 10:00 11,4 C 88 % 1018,9 hPa 0,0 l/m 0,1 km/h (0 Bft) N 1,00 h 0,076 mm 1,4 UV-I 240 W/m 9,5 C 11,4 C 0,6 km/h (0 Bft)
21.09.2015 11:00 12,6 C 85 % 1018,6 hPa 0,0 l/m 0,6 km/h (0 Bft) N 1,00 h 0,127 mm 2,4 UV-I 307 W/m 10,2 C 12,6 C 1,7 km/h (1 Bft)
21.09.2015 12:00 15,4 C 74 % 1017,9 hPa 0,0 l/m 2,8 km/h (1 Bft) S 1,00 h 0,178 mm 3,6 UV-I 635 W/m 10,9 C 15,4 C 5,5 km/h (2 Bft)
21.09.2015 13:00 16,2 C 66 % 1017,2 hPa 0,0 l/m 2,2 km/h (1 Bft) N 1,00 h 0,330 mm 3,1 UV-I 500 W/m 9,8 C 16,2 C 5,0 km/h (1 Bft)
21.09.2015 14:00 15,2 C 69 % 1016,4 hPa 0,0 l/m 1,0 km/h (0 Bft) N 1,00 h 0,254 mm 1,2 UV-I 129 W/m 9,6 C 15,2 C 2,5 km/h (1 Bft)
21.09.2015 15:00 15,4 C 67 % 1015,6 hPa 0,0 l/m 0,2 km/h (0 Bft) N 1,00 h 0,076 mm 1,1 UV-I 224 W/m 9,2 C 15,4 C 0,7 km/h (0 Bft)
21.09.2015 16:00 15,8 C 67 % 1015,1 hPa 0,0 l/m 0,2 km/h (0 Bft) N 1,00 h 0,127 mm 1,0 UV-I 149 W/m 9,5 C 15,8 C 0,5 km/h (0 Bft)
21.09.2015 17:00 15,3 C 69 % 1014,8 hPa 0,0 l/m 0,0 km/h (0 Bft) N 0,85 h 0,076 mm 0,6 UV-I 80 W/m 9,6 C 15,3 C 0,1 km/h (0 Bft)
21.09.2015 18:00 14,8 C 72 % 1014,3 hPa 0,0 l/m 0,0 km/h (0 Bft) N 0,50 h 0,051 mm 0,0 UV-I 40 W/m 9,8 C 14,8 C 0,1 km/h (0 Bft)
21.09.2015 19:00 13,0 C 80 % 1014,0 hPa 0,0 l/m 0,0 km/h (0 Bft) N 0,00 h 0,025 mm 0,0 UV-I 5 W/m 9,6 C 13,0 C 0,0 km/h (0 Bft)
21.09.2015 20:00 11,7 C 83 % 1014,0 hPa 0,0 l/m 0,0 km/h (0 Bft) N 0,00 h 0,000 mm 0,0 UV-I 0 W/m 8,9 C 11,7 C 0,0 km/h (0 Bft)
21.09.2015 21:00 10,2 C 85 % 1013,6 hPa 0,0 l/m 0,0 km/h (0 Bft) N 0,00 h 0,000 mm 0,0 UV-I 0 W/m 7,9 C 10,2 C 0,0 km/h (0 Bft)
21.09.2015 22:00 8,9 C 88 % 1013,2 hPa 0,0 l/m 0,0 km/h (0 Bft) N 0,00 h 0,000 mm 0,0 UV-I 0 W/m 7,0 C 8,9 C 0,0 km/h (0 Bft)
21.09.2015 23:00 8,0 C 90 % 1012,8 hPa 0,0 l/m 0,0 km/h (0 Bft) N 0,00 h 0,000 mm 0,0 UV-I 0 W/m 6,4 C 8,0 C 0,0 km/h (0 Bft)
22.09.2015 00:00 7,7 C 91 % 1012,2 hPa 0,0 l/m 0,0 km/h (0 Bft) N 0,00 h 0,000 mm 0,0 UV-I 0 W/m 6,4 C 7,7 C 0,0 km/h (0 Bft)
22.09.2015 01:00 7,2 C 92 % 1011,6 hPa 0,0 l/m 0,0 km/h (0 Bft) N 0,00 h 0,000 mm 0,0 UV-I 0 W/m 5,9 C 7,2 C 0,0 km/h (0 Bft)
22.09.2015 02:00 7,0 C 93 % 1011,2 hPa 0,0 l/m 0,0 km/h (0 Bft) N 0,00 h 0,000 mm 0,0 UV-I 0 W/m 5,9 C 7,0 C 0,0 km/h (0 Bft)
22.09.2015 03:00 6,3 C 92 % 1010,8 hPa 0,0 l/m 0,0 km/h (0 Bft) N 0,00 h 0,000 mm 0,0 UV-I 0 W/m 5,1 C 6,3 C 0,0 km/h (0 Bft)
22.09.2015 04:00 5,8 C 93 % 1010,4 hPa 0,0 l/m 0,0 km/h (0 Bft) N 0,00 h 0,000 mm 0,0 UV-I 0 W/m 4,7 C 5,8 C 0,0 km/h (0 Bft)
22.09.2015 05:00 5,5 C 94 % 1010,1 hPa 0,0 l/m 0,0 km/h (0 Bft) N 0,00 h 0,000 mm 0,0 UV-I 0 W/m 4,6 C 5,5 C 0,0 km/h (0 Bft)
22.09.2015 06:00 5,5 C 94 % 1009,7 hPa 0,0 l/m 0,0 km/h (0 Bft) N 0,00 h 0,000 mm 0,0 UV-I 0 W/m 4,6 C 5,5 C 0,0 km/h (0 Bft)
22.09.2015 07:00 5,6 C 95 % 1009,3 hPa 0,0 l/m 0,3 km/h (0 Bft) N 0,00 h 0,000 mm 0,0 UV-I 21 W/m 4,9 C 5,6 C 1,2 km/h (1 Bft)
22.09.2015 08:00 7,4 C 95 % 1008,6 hPa 0,0 l/m 0,0 km/h (0 Bft) N 0,90 h 0,000 mm 0,6 UV-I 141 W/m 6,6 C 7,4 C 0,0 km/h (0 Bft)
22.09.2015 09:00 12,1 C 82 % 1008,3 hPa 0,0 l/m 0,6 km/h (0 Bft) N 1,00 h 0,076 mm 1,1 UV-I 341 W/m 9,2 C 12,1 C 1,6 km/h (1 Bft)
22.09.2015 10:00 13,8 C 72 % 1008,1 hPa 0,0 l/m 5,3 km/h (1 Bft) S 1,00 h 0,178 mm 1,9 UV-I 401 W/m 8,9 C 13,5 C 10,4 km/h (2 Bft)
22.09.2015 11:00 14,5 C 70 % 1007,5 hPa 0,0 l/m 3,4 km/h (1 Bft) S 1,00 h 0,229 mm 2,2 UV-I 351 W/m 9,1 C 14,4 C 8,1 km/h (2 Bft)
22.09.2015 12:00 15,4 C 70 % 1007,0 hPa 0,0 l/m 3,9 km/h (1 Bft) S 1,00 h 0,178 mm 2,7 UV-I 424 W/m 9,9 C 15,3 C 8,7 km/h (2 Bft)
22.09.2015 13:00 15,9 C 68 % 1006,6 hPa 0,0 l/m 4,9 km/h (1 Bft) S 1,00 h 0,229 mm 2,4 UV-I 333 W/m 10,0 C 15,7 C 10,5 km/h (2 Bft)
22.09.2015 14:00 16,2 C 67 % 1006,1 hPa 0,0 l/m 4,2 km/h (1 Bft) S 1,00 h 0,229 mm 1,8 UV-I 248 W/m 10,0 C 16,0 C 9,2 km/h (2 Bft)
22.09.2015 15:00 15,4 C 70 % 1005,8 hPa 0,0 l/m 3,0 km/h (1 Bft) S 1,00 h 0,152 mm 0,8 UV-I 111 W/m 10,0 C 15,3 C 8,1 km/h (2 Bft)
22.09.2015 16:00 15,4 C 70 % 1004,6 hPa 0,0 l/m 1,8 km/h (1 Bft) S-SO 1,00 h 0,076 mm 0,6 UV-I 89 W/m 9,9 C 15,4 C 5,0 km/h (1 Bft)
22.09.2015 17:00 15,1 C 72 % 1004,5 hPa 0,0 l/m 1,5 km/h (1 Bft) S-SO 0,37 h 0,051 mm 0,0 UV-I 35 W/m 10,0 C 15,1 C 4,7 km/h (1 Bft)
22.09.2015 18:00 14,3 C 75 % 1003,9 hPa 0,0 l/m 3,2 km/h (1 Bft) S-SO 0,00 h 0,025 mm 0,0 UV-I 14 W/m 9,8 C 14,2 C 8,0 km/h (2 Bft)
22.09.2015 19:00 13,9 C 76 % 1004,4 hPa 0,0 l/m 3,9 km/h (1 Bft) S 0,00 h 0,025 mm 0,0 UV-I 0 W/m 9,8 C 13,8 C 9,2 km/h (2 Bft)
22.09.2015 20:00 13,0 C 81 % 1005,3 hPa 2,6 l/m 5,4 km/h (1 Bft) N 0,00 h 0,025 mm 0,0 UV-I 0 W/m 9,8 C 12,2 C 11,3 km/h (2 Bft)
22.09.2015 21:00 11,1 C 91 % 1005,5 hPa 1,4 l/m 0,0 km/h (0 Bft) N 0,00 h 0,025 mm 0,0 UV-I 0 W/m 9,6 C 11,1 C 0,2 km/h (0 Bft)
22.09.2015 22:00 10,7 C 93 % 1005,1 hPa 0,2 l/m 0,2 km/h (0 Bft) N 0,00 h 0,000 mm 0,0 UV-I 0 W/m 9,7 C 10,7 C 1,0 km/h (0 Bft)
22.09.2015 23:00 11,0 C 95 % 1005,0 hPa 0,0 l/m 0,1 km/h (0 Bft) N 0,00 h 0,000 mm 0,0 UV-I 0 W/m 10,2 C 11,0 C 0,7 km/h (0 Bft)
23.09.2015 00:00 11,3 C 95 % 1004,8 hPa 0,0 l/m 0,7 km/h (0 Bft) N 0,00 h 0,000 mm 0,0 UV-I 0 W/m 10,5 C 11,3 C 2,2 km/h (1 Bft)
23.09.2015 01:00 11,3 C 94 % 1004,7 hPa 0,0 l/m 0,3 km/h (0 Bft) N 0,00 h 0,000 mm 0,0 UV-I 0 W/m 10,4 C 11,3 C 0,9 km/h (0 Bft)
23.09.2015 02:00 11,2 C 94 % 1004,6 hPa 0,2 l/m 1,1 km/h (0 Bft) S 0,00 h 0,000 mm 0,0 UV-I 0 W/m 10,3 C 11,2 C 4,0 km/h (1 Bft)
23.09.2015 03:00 11,2 C 95 % 1004,4 hPa 0,0 l/m 0,7 km/h (0 Bft) N 0,00 h 0,000 mm 0,0 UV-I 0 W/m 10,4 C 11,2 C 3,4 km/h (1 Bft)
24.09.2015 12:00 14,4 C 76 % 1020,6 hPa 0,0 l/m 2,6 km/h (1 Bft) S-SW 1,48 h 0,000 mm 2,4 UV-I 472 W/m 10,2 C 14,3 C 6,1 km/h (2 Bft)
24.09.2015 13:00 13,9 C 75 % 1020,7 hPa 0,0 l/m 2,7 km/h (1 Bft) W-SW 1,00 h 0,203 mm 1,3 UV-I 179 W/m 9,6 C 13,8 C 6,2 km/h (2 Bft)
24.09.2015 14:00 14,2 C 73 % 1020,3 hPa 0,0 l/m 2,6 km/h (1 Bft) W-SW 1,00 h 0,102 mm 2,0 UV-I 310 W/m 9,4 C 14,2 C 5,7 km/h (2 Bft)
24.09.2015 15:00 15,4 C 66 % 1019,9 hPa 0,0 l/m 1,9 km/h (1 Bft) N 1,00 h 0,178 mm 1,9 UV-I 355 W/m 9,1 C 15,3 C 5,0 km/h (1 Bft)
24.09.2015 16:00 14,8 C 68 % 1019,9 hPa 0,0 l/m 2,0 km/h (1 Bft) SW 1,00 h 0,178 mm 0,8 UV-I 135 W/m 8,8 C 14,8 C 5,6 km/h (2 Bft)
24.09.2015 17:00 14,5 C 71 % 1019,9 hPa 0,0 l/m 1,5 km/h (1 Bft) S 0,88 h 0,076 mm 0,5 UV-I 111 W/m 9,3 C 14,5 C 4,0 km/h (1 Bft)
24.09.2015 18:00 13,3 C 76 % 1020,1 hPa 0,0 l/m 0,1 km/h (0 Bft) N 0,02 h 0,076 mm 0,0 UV-I 18 W/m 9,3 C 13,3 C 0,5 km/h (0 Bft)
24.09.2015 19:00 11,8 C 82 % 1020,3 hPa 0,0 l/m 0,0 km/h (0 Bft) N 0,00 h 0,025 mm 0,0 UV-I 0 W/m 8,9 C 11,8 C 0,0 km/h (0 Bft)
24.09.2015 20:00 10,2 C 88 % 1020,7 hPa 0,0 l/m 0,0 km/h (0 Bft) N 0,00 h 0,000 mm 0,0 UV-I 0 W/m 8,3 C 10,2 C 0,0 km/h (0 Bft)
24.09.2015 21:00 9,2 C 89 % 1021,1 hPa 0,0 l/m 0,0 km/h (0 Bft) N 0,00 h 0,000 mm 0,0 UV-I 0 W/m 7,5 C 9,2 C 0,0 km/h (0 Bft)
24.09.2015 22:00 8,1 C 90 % 1021,3 hPa 0,0 l/m 0,0 km/h (0 Bft) N 0,00 h 0,000 mm 0,0 UV-I 0 W/m 6,6 C 8,1 C 0,0 km/h (0 Bft)
24.09.2015 23:00 7,3 C 91 % 1021,5 hPa 0,0 l/m 0,0 km/h (0 Bft) N 0,00 h 0,000 mm 0,0 UV-I 0 W/m 5,9 C 7,3 C 0,0 km/h (0 Bft)
25.09.2015 00:00 6,6 C 92 % 1021,5 hPa 0,0 l/m 0,0 km/h (0 Bft) N 0,00 h 0,000 mm 0,0 UV-I 0 W/m 5,3 C 6,6 C 0,0 km/h (0 Bft)
25.09.2015 01:00 6,1 C 93 % 1021,3 hPa 0,0 l/m 0,0 km/h (0 Bft) N 0,00 h 0,000 mm 0,0 UV-I 0 W/m 5,1 C 6,1 C 0,0 km/h (0 Bft)
25.09.2015 02:00 5,7 C 93 % 1021,4 hPa 0,0 l/m 0,0 km/h (0 Bft) N 0,00 h 0,000 mm 0,0 UV-I 0 W/m 4,6 C 5,7 C 0,0 km/h (0 Bft)
25.09.2015 03:00 5,1 C 93 % 1021,3 hPa 0,0 l/m 0,0 km/h (0 Bft) N 0,00 h 0,000 mm 0,0 UV-I 0 W/m 4,1 C 5,1 C 0,0 km/h (0 Bft)
25.09.2015 04:00 4,7 C 93 % 1021,2 hPa 0,0 l/m 0,0 km/h (0 Bft) N 0,00 h 0,000 mm 0,0 UV-I 0 W/m 3,8 C 4,7 C 0,0 km/h (0 Bft)
25.09.2015 05:00 4,3 C 94 % 1021,3 hPa 0,0 l/m 0,0 km/h (0 Bft) N 0,00 h 0,000 mm 0,0 UV-I 0 W/m 3,4 C 4,3 C 0,0 km/h (0 Bft)
25.09.2015 06:00 3,8 C 94 % 1021,2 hPa 0,0 l/m 0,0 km/h (0 Bft) N 0,00 h 0,000 mm 0,0 UV-I 0 W/m 2,9 C 3,8 C 0,0 km/h (0 Bft)
25.09.2015 07:00 3,5 C 94 % 1021,6 hPa 0,0 l/m 0,0 km/h (0 Bft) N 0,22 h 0,000 mm 0,0 UV-I 30 W/m 2,7 C 3,5 C 0,0 km/h (0 Bft)
25.09.2015 08:00 5,4 C 95 % 1021,8 hPa 0,0 l/m 0,0 km/h (0 Bft) N 1,00 h 0,000 mm 0,6 UV-I 172 W/m 4,7 C 5,4 C 0,0 km/h (0 Bft)
25.09.2015 09:00 9,8 C 89 % 1021,8 hPa 0,0 l/m 0,0 km/h (0 Bft) N 1,00 h 0,076 mm 1,1 UV-I 329 W/m 8,2 C 9,8 C 0,0 km/h (0 Bft)
25.09.2015 10:00 13,1 C 83 % 1021,7 hPa 0,0 l/m 0,6 km/h (0 Bft) N 1,00 h 0,152 mm 2,0 UV-I 440 W/m 10,2 C 13,1 C 1,5 km/h (1 Bft)
25.09.2015 11:00 15,6 C 73 % 1021,5 hPa 0,0 l/m 1,7 km/h (1 Bft) N 1,00 h 0,229 mm 2,8 UV-I 521 W/m 10,8 C 15,6 C 4,0 km/h (1 Bft)
25.09.2015 12:00 16,9 C 64 % 1021,1 hPa 0,0 l/m 3,7 km/h (1 Bft) W 1,00 h 0,279 mm 2,9 UV-I 472 W/m 10,2 C 16,7 C 7,5 km/h (2 Bft)
25.09.2015 13:00 16,5 C 65 % 1020,8 hPa 0,0 l/m 3,2 km/h (1 Bft) NW 1,00 h 0,279 mm 1,9 UV-I 236 W/m 9,9 C 16,5 C 6,3 km/h (2 Bft)
25.09.2015 14:00 16,4 C 66 % 1020,7 hPa 0,0 l/m 3,1 km/h (1 Bft) NW 1,00 h 0,152 mm 1,5 UV-I 195 W/m 10,0 C 16,4 C 6,6 km/h (2 Bft)
25.09.2015 15:00 16,2 C 68 % 1020,8 hPa 0,0 l/m 3,8 km/h (1 Bft) N 1,00 h 0,127 mm 1,3 UV-I 173 W/m 10,2 C 16,1 C 8,0 km/h (2 Bft)
25.09.2015 16:00 16,4 C 67 % 1020,7 hPa 0,0 l/m 2,0 km/h (1 Bft) N 1,00 h 0,102 mm 0,8 UV-I 192 W/m 10,3 C 16,4 C 5,0 km/h (1 Bft)
25.09.2015 17:00 15,5 C 70 % 1020,8 hPa 0,0 l/m 1,4 km/h (1 Bft) N 0,33 h 0,102 mm 0,5 UV-I 47 W/m 10,2 C 15,5 C 4,1 km/h (1 Bft)
25.09.2015 18:00 14,9 C 75 % 1021,1 hPa 0,0 l/m 0,4 km/h (0 Bft) N 0,00 h 0,025 mm 0,0 UV-I 17 W/m 10,4 C 14,9 C 2,0 km/h (1 Bft)
25.09.2015 19:00 13,9 C 79 % 1021,4 hPa 0,0 l/m 0,0 km/h (0 Bft) N 0,00 h 0,025 mm 0,0 UV-I 0 W/m 10,2 C 13,9 C 0,2 km/h (0 Bft)
25.09.2015 20:00 13,6 C 80 % 1021,9 hPa 0,0 l/m 0,0 km/h (0 Bft) N 0,00 h 0,000 mm 0,0 UV-I 0 W/m 10,2 C 13,6 C 0,0 km/h (0 Bft)
25.09.2015 21:00 13,1 C 83 % 1022,2 hPa 0,0 l/m 0,0 km/h (0 Bft) N 0,00 h 0,025 mm 0,0 UV-I 0 W/m 10,2 C 13,1 C 0,0 km/h (0 Bft)
25.09.2015 22:00 12,4 C 86 % 1022,3 hPa 0,0 l/m 0,0 km/h (0 Bft) N 0,00 h 0,025 mm 0,0 UV-I 0 W/m 10,1 C 12,4 C 0,1 km/h (0 Bft)
25.09.2015 23:00 12,0 C 88 % 1022,5 hPa 0,0 l/m 0,0 km/h (0 Bft) N 0,00 h 0,000 mm 0,0 UV-I 0 W/m 10,1 C 12,0 C 0,0 km/h (0 Bft)
26.09.2015 00:00 11,8 C 89 % 1022,5 hPa 0,0 l/m 0,0 km/h (0 Bft) N 0,00 h 0,000 mm 0,0 UV-I 0 W/m 10,1 C 11,8 C 0,0 km/h (0 Bft)
26.09.2015 01:00 11,5 C 90 % 1022,4 hPa 0,0 l/m 0,0 km/h (0 Bft) N 0,00 h 0,000 mm 0,0 UV-I 0 W/m 9,9 C 11,5 C 0,0 km/h (0 Bft)
26.09.2015 02:00 11,3 C 91 % 1022,4 hPa 0,0 l/m 0,0 km/h (0 Bft) N 0,00 h 0,000 mm 0,0 UV-I 0 W/m 9,9 C 11,3 C 0,6 km/h (0 Bft)
26.09.2015 03:00 11,0 C 91 % 1022,4 hPa 0,0 l/m 0,0 km/h (0 Bft) N 0,00 h 0,000 mm 0,0 UV-I 0 W/m 9,6 C 11,0 C 0,0 km/h (0 Bft)
26.09.2015 04:00 10,4 C 92 % 1022,3 hPa 0,0 l/m 0,0 km/h (0 Bft) N 0,00 h 0,000 mm 0,0 UV-I 0 W/m 9,2 C 10,4 C 0,5 km/h (0 Bft)
26.09.2015 05:00 10,1 C 93 % 1022,2 hPa 0,0 l/m 0,0 km/h (0 Bft) N 0,00 h 0,000 mm 0,0 UV-I 0 W/m 8,9 C 10,1 C 0,1 km/h (0 Bft)
26.09.2015 06:00 9,7 C 93 % 1022,4 hPa 0,0 l/m 0,0 km/h (0 Bft) N 0,00 h 0,000 mm 0,0 UV-I 0 W/m 8,6 C 9,7 C 0,0 km/h (0 Bft)
26.09.2015 07:00 9,6 C 94 % 1022,8 hPa 0,0 l/m 0,0 km/h (0 Bft) N 0,00 h 0,000 mm 0,0 UV-I 12 W/m 8,7 C 9,6 C 0,1 km/h (0 Bft)
26.09.2015 08:00 10,1 C 95 % 1023,0 hPa 0,0 l/m 0,0 km/h (0 Bft) N 0,00 h 0,000 mm 0,0 UV-I 32 W/m 9,3 C 10,1 C 0,3 km/h (0 Bft)
26.09.2015 09:00 10,9 C 93 % 1023,2 hPa 0,0 l/m 1,1 km/h (0 Bft) N 0,97 h 0,025 mm 0,6 UV-I 87 W/m 9,9 C 10,9 C 3,5 km/h (1 Bft)
26.09.2015 10:00 12,2 C 87 % 1023,5 hPa 0,0 l/m 1,8 km/h (1 Bft) N 1,00 h 0,051 mm 1,1 UV-I 160 W/m 10,2 C 12,2 C 4,1 km/h (1 Bft)
26.09.2015 11:00 13,3 C 82 % 1023,5 hPa 0,0 l/m 3,1 km/h (1 Bft) N 1,00 h 0,076 mm 1,7 UV-I 233 W/m 10,2 C 13,2 C 7,3 km/h (2 Bft)
26.09.2015 12:00 14,3 C 76 % 1023,5 hPa 0,0 l/m 3,1 km/h (1 Bft) N-NO 1,00 h 0,127 mm 1,9 UV-I 240 W/m 10,2 C 14,2 C 7,0 km/h (2 Bft)
26.09.2015 13:00 14,3 C 74 % 1023,4 hPa 0,0 l/m 1,3 km/h (1 Bft) N 1,00 h 0,127 mm 1,2 UV-I 137 W/m 9,7 C 14,3 C 3,6 km/h (1 Bft)
26.09.2015 14:00 14,1 C 72 % 1023,4 hPa 0,0 l/m 1,7 km/h (1 Bft) N 0,43 h 0,076 mm 1,3 UV-I 80 W/m 9,2 C 14,0 C 3,9 km/h (1 Bft)
26.09.2015 15:00 13,2 C 79 % 1023,6 hPa 0,0 l/m 3,4 km/h (1 Bft) N 0,40 h 0,051 mm 0,0 UV-I 47 W/m 9,6 C 12,9 C 7,2 km/h (2 Bft)
26.09.2015 16:00 12,8 C 79 % 1024,0 hPa 0,0 l/m 7,7 km/h (2 Bft) N 0,48 h 0,025 mm 0,0 UV-I 47 W/m 9,3 C 11,6 C 12,8 km/h (3 Bft)
26.09.2015 17:00 12,0 C 79 % 1024,5 hPa 0,0 l/m 2,7 km/h (1 Bft) N 0,00 h 0,051 mm 0,0 UV-I 20 W/m 8,5 C 11,9 C 5,6 km/h (2 Bft)
26.09.2015 18:00 11,7 C 79 % 1024,9 hPa 0,0 l/m 0,3 km/h (0 Bft) N 0,00 h 0,025 mm 0,0 UV-I 7 W/m 8,3 C 11,7 C 0,8 km/h (0 Bft)
26.09.2015 19:00 11,3 C 80 % 1025,3 hPa 0,0 l/m 0,4 km/h (0 Bft) N 0,00 h 0,000 mm 0,0 UV-I 0 W/m 7,9 C 11,3 C 1,4 km/h (1 Bft)
26.09.2015 20:00 11,0 C 81 % 1025,9 hPa 0,0 l/m 0,0 km/h (0 Bft) N 0,00 h 0,025 mm 0,0 UV-I 0 W/m 7,8 C 11,0 C 0,0 km/h (0 Bft)
26.09.2015 21:00 10,7 C 83 % 1026,4 hPa 0,0 l/m 0,1 km/h (0 Bft) N 0,00 h 0,025 mm 0,0 UV-I 0 W/m 8,0 C 10,7 C 0,3 km/h (0 Bft)
26.09.2015 22:00 10,5 C 85 % 1026,7 hPa 0,0 l/m 0,5 km/h (0 Bft) N 0,00 h 0,000 mm 0,0 UV-I 0 W/m 8,1 C 10,5 C 1,3 km/h (1 Bft)
26.09.2015 23:00 10,4 C 86 % 1026,7 hPa 0,0 l/m 0,2 km/h (0 Bft) N 0,00 h 0,000 mm 0,0 UV-I 0 W/m 8,2 C 10,4 C 0,6 km/h (0 Bft)
27.09.2015 00:00 10,3 C 87 % 1026,8 hPa 0,0 l/m 0,0 km/h (0 Bft) N 0,00 h 0,000 mm 0,0 UV-I 0 W/m 8,1 C 10,3 C 0,0 km/h (0 Bft)
27.09.2015 01:00 10,0 C 88 % 1026,9 hPa 0,0 l/m 0,2 km/h (0 Bft) N 0,00 h 0,000 mm 0,0 UV-I 0 W/m 8,1 C 10,0 C 0,6 km/h (0 Bft)
27.09.2015 02:00 9,6 C 89 % 1027,0 hPa 0,0 l/m 0,0 km/h (0 Bft) N 0,00 h 0,000 mm 0,0 UV-I 0 W/m 7,8 C 9,6 C 0,0 km/h (0 Bft)
27.09.2015 03:00 9,1 C 89 % 1027,3 hPa 0,0 l/m 1,4 km/h (1 Bft) N 0,00 h 0,000 mm 0,0 UV-I 0 W/m 7,4 C 9,1 C 3,2 km/h (1 Bft)
27.09.2015 04:00 8,2 C 89 % 1027,6 hPa 0,0 l/m 0,0 km/h (0 Bft) N 0,00 h 0,000 mm 0,0 UV-I 0 W/m 6,6 C 8,2 C 0,0 km/h (0 Bft)
27.09.2015 05:00 7,0 C 90 % 1027,8 hPa 0,0 l/m 0,1 km/h (0 Bft) N 0,00 h 0,000 mm 0,0 UV-I 0 W/m 5,5 C 7,0 C 0,1 km/h (0 Bft)
27.09.2015 06:00 5,8 C 91 % 1028,0 hPa 0,0 l/m 0,5 km/h (0 Bft) N 0,00 h 0,000 mm 0,0 UV-I 0 W/m 4,3 C 5,8 C 1,1 km/h (0 Bft)
27.09.2015 07:00 4,8 C 91 % 1028,6 hPa 0,0 l/m 0,0 km/h (0 Bft) N 0,00 h 0,000 mm 0,0 UV-I 18 W/m 3,5 C 4,8 C 0,0 km/h (0 Bft)
27.09.2015 08:00 5,7 C 93 % 1029,1 hPa 0,0 l/m 0,2 km/h (0 Bft) N 0,78 h 0,000 mm 0,6 UV-I 178 W/m 4,7 C 5,7 C 0,4 km/h (0 Bft)
27.09.2015 09:00 10,2 C 85 % 1029,6 hPa 0,0 l/m 1,2 km/h (1 Bft) N 1,00 h 0,076 mm 1,1 UV-I 314 W/m 7,8 C 10,2 C 2,3 km/h (1 Bft)
27.09.2015 10:00 12,8 C 76 % 1029,9 hPa 0,0 l/m 3,2 km/h (1 Bft) N 1,00 h 0,127 mm 1,7 UV-I 370 W/m 8,6 C 12,4 C 6,0 km/h (2 Bft)
27.09.2015 11:00 12,7 C 73 % 1030,2 hPa 0,0 l/m 5,8 km/h (2 Bft) N-NO 1,00 h 0,203 mm 1,9 UV-I 313 W/m 8,0 C 11,8 C 11,3 km/h (2 Bft)
27.09.2015 12:00 14,4 C 59 % 1030,0 hPa 0,0 l/m 4,5 km/h (1 Bft) N-NO 1,00 h 0,178 mm 2,5 UV-I 383 W/m 6,5 C 13,7 C 9,0 km/h (2 Bft)
27.09.2015 13:00 14,1 C 60 % 1030,0 hPa 0,0 l/m 8,8 km/h (2 Bft) N-NO 1,00 h 0,229 mm 2,3 UV-I 329 W/m 6,3 C 12,4 C 14,3 km/h (3 Bft)
27.09.2015 14:00 14,1 C 56 % 1030,1 hPa 0,0 l/m 8,3 km/h (2 Bft) N-NO 1,00 h 0,229 mm 2,0 UV-I 291 W/m 5,4 C 12,6 C 14,2 km/h (3 Bft)
27.09.2015 15:00 13,6 C 59 % 1030,3 hPa 0,0 l/m 8,9 km/h (2 Bft) N-NO 1,00 h 0,203 mm 1,1 UV-I 167 W/m 5,6 C 11,9 C 14,9 km/h (3 Bft)
27.09.2015 16:00 12,8 C 64 % 1030,8 hPa 0,0 l/m 7,6 km/h (2 Bft) N-NO 1,00 h 0,127 mm 0,7 UV-I 112 W/m 6,0 C 11,3 C 12,7 km/h (3 Bft)
27.09.2015 17:00 12,3 C 68 % 1031,1 hPa 0,0 l/m 5,9 km/h (2 Bft) N-NO 0,20 h 0,102 mm 0,5 UV-I 44 W/m 6,5 C 11,6 C 10,7 km/h (2 Bft)
27.09.2015 18:00 11,7 C 72 % 1031,4 hPa 0,0 l/m 3,0 km/h (1 Bft) N 0,00 h 0,051 mm 0,0 UV-I 18 W/m 6,8 C 11,6 C 7,1 km/h (2 Bft)
27.09.2015 19:00 11,2 C 74 % 1031,8 hPa 0,0 l/m 3,3 km/h (1 Bft) N 0,00 h 0,025 mm 0,0 UV-I 0 W/m 6,7 C 11,1 C 6,9 km/h (2 Bft)
27.09.2015 20:00 10,7 C 77 % 1032,3 hPa 0,0 l/m 0,7 km/h (0 Bft) N 0,00 h 0,025 mm 0,0 UV-I 0 W/m 6,8 C 10,7 C 2,4 km/h (1 Bft)
27.09.2015 21:00 10,3 C 79 % 1032,5 hPa 0,0 l/m 0,0 km/h (0 Bft) N 0,00 h 0,025 mm 0,0 UV-I 0 W/m 6,9 C 10,3 C 0,1 km/h (0 Bft)
27.09.2015 22:00 9,6 C 81 % 1032,8 hPa 0,0 l/m 0,0 km/h (0 Bft) N 0,00 h 0,025 mm 0,0 UV-I 0 W/m 6,6 C 9,6 C 0,0 km/h (0 Bft)
27.09.2015 23:00 9,0 C 84 % 1033,0 hPa 0,0 l/m 0,0 km/h (0 Bft) N 0,00 h 0,000 mm 0,0 UV-I 0 W/m 6,4 C 9,0 C 0,0 km/h (0 Bft)
Min-Datum _ 25.09.15 27.09.15 22.09.15 - 21.09.15 - - - - - 25.09.15 25.09.15 21.09.15
_ Min-Zeit 07:18 14:10 18:13 - 00:00 - - - - - 07:20 07:20 00:00
Minimum _ 3,4 C 53 % 1003,3 hPa - 0,0 km/h (0 Bft) - - - - - 2,5 C 3,4 C 0,0 km/h (0 Bft)
Max-Datum _ 25.09.15 22.09.15 27.09.15 22.09.15 22.09.15 - 24.09.15 21.09.15 21.09.15 27.09.15 21.09.15 25.09.15 22.09.15
_ Max-Zeit 12:56 08:34 23:05 20:33 20:30 - 12:30 13:00 13:19 13:13 12:19 12:56 20:32
Maximum _ 17,9 C 97 % 1033,1 hPa 2,6 l/m 22,5 km/h
N (4 Bft)
- 1,00 h 0,330 mm 4,1 UV-I 810 W/m 12,0 C 17,9 C 33,8 km/h
S (5 Bft)
Durchschnitt _ 11,2 C 82 % 1019,6 hPa #5,0 l/m 1,3 km/h (1 Bft) N #51:36 h #7,614 mm 1,5 UV-I 193 W/m 8,1 C 11,1 C 2,8 km/h (1 Bft)